VIJP/JAI METAR and TAF weather

Enter ICAO airport designator
Station Type Date Time Source
VIJP METAR 2020/04/06 11:00 UTC NOAA

VIJP 061100Z 30008KT 5000 HZ FEW035 37/M01 Q1010 NOSIG


Station Type Date Time Source
VIJP Decoded METAR 2020/04/06 11:00 UTC NOAA

Jaipur / Sanganer, India (VIJP) 26-49N 075-48E 390M
Apr 06, 2020 - 07:00 AM EDT / 2020.04.06 1100 UTC
Wind: from the WNW (300 degrees) at 9 MPH (8 KT):0
Visibility: 3 mile(s):0
Sky conditions: mostly clear
Weather: haze
Temperature: 98 F (37 C)
Dew Point: 30 F (-1 C)
Relative Humidity: 9%
Pressure (altimeter): 29.83 in. Hg (1010 hPa)
ob: VIJP 061100Z 30008KT 5000 HZ FEW035 37/M01 Q1010 NOSIG
cycle: 11

Station Type Date Time Source
VIJP TAF 2020/04/06 12:00 UTC NOAA

TAF VIJP 061100Z 0612/0621 30008KT 5000 HZ FEW035
BECMG 0613/0615 36005KT 3000 HZ

Example: see airport list